Sharps, VA (22548)

3:10 AM EST on February 14, 2016 (GMT -0500)
Settlers Landing | | Change Station
CLOSE
Current Station
Personal Weather Station
Location: Warsaw, VA
Elevation: 43 ft
Nearby Weather Stations
Active Advisory: Wind Chill Advisory

Elev 43 ft 37.93 °N, 76.71 °W | Updated 1 minute ago

Clear
Clear
14.2 °F
Feels Like 14 °F
N
2.7
Wind Variable Wind from SSW

Today
High -- | Low -- °F
--% Chance of Precip.
Yesterday
High -- | Low -- °F
Precip. -- in
Pressure 30.49 in
Visibility 10.0 miles
Clouds Clear
Windchill 14 °F
Dew Point -1 °F
Humidity 50%
Rainfall 0.00 in
Snow Depth Not available.
6:58 AM 5:44 PM
Waxing Crescent, 39% visible
METAR KXSA 140755Z AUTO 00000KT 10SM CLR M10/M20 A3049 RMK AO2 T10981203
Pressure 30.49 in
Visibility 10.0 miles
Clouds Clear
Windchill 14 °F
Dew Point -1 °F
Humidity 50%
Rainfall 0.00 in
Snow Depth Not available.
6:58 AM 5:44 PM
Waxing Crescent, 39% visible
METAR KXSA 140755Z AUTO 00000KT 10SM CLR M10/M20 A3049 RMK AO2 T10981203

10-Day Weather Forecast

Almanac

Astronomy

Feb. 14, 2016 Rise Set
Actual Time
Civil Twilight
Nautical Twilight
Astronomical Twilight
Moon
Length of Visible Light
Length of Day
Tomorrow will be .
, % of the Moon is Illuminated

Today's Extremes

State Highs State Lows

Community

WunderPhotos

Upload Photos

1,892,757 photos uploaded!

WunderBlog® & News

Nearby

Air Quality

  Air Quality AQ Index Pollutant
Not available.

Snow Depth

Station Depth Elevation

Earthquake Activity

City Distance Mag. Time & Date
Minimum magnitude displayed is 2.5.

Coastal Water Temperatures

Place Temperature

Stations

Nearby Weather Stations

Station Location Temp. Windchill Dew Point Humidity Wind Precip. Elev Updated Type
                   

Watches & Warnings

Wind Chill Advisory
Issued: 9:26 PM EST Feb. 13, 2016 – National Weather Service

... Wind Chill Advisory remains in effect until 10 am EST Sunday...

* areas affected: Virginia Northern Neck... and the lower
Maryland and Virginia Eastern Shore.

* Hazards: dangerously low wind chills. Northwest winds 15 to 20
mph with gusts to 30 mph.

* Wind chill values: mainly zero to five below zero.

* Timing: late tonight through early Sunday morning.

* Impacts: wind chill values potentially reaching dangerous
levels. The low wind chills have the potential to result in
hypothermia if care is not taken to stay warm and sheltered.

Precautionary/preparedness actions...

A Wind Chill Advisory means that very cold air and strong winds
will combine to generate low wind chills. This will result in
frost bite and lead to hypothermia if precautions are not taken.
If you must venture outdoors... make sure you wear a hat and
gloves.